Belvidere, IL

7:20 AM CDT on July 04, 2015 (GMT -0500)
Belvidere | | Change Station
CLOSE
Current Station
Personal Weather Station
Location: Belvidere, IL
Elevation: 817 ft
Nearby Weather Stations

Elev 817 ft 42.25 °N, 88.83 °W | Updated 14 minutes ago

Clear
Clear
61.5 °F
Feels Like 61.5 °F
N
1.7
Wind Variable Wind from SSE

Today
High -- | Low -- °F
--% Chance of Precip.
Yesterday
High -- | Low -- °F
Precip. -- in
5:24 AM 8:35 PM
Waning Gibbous, 92% visible
Pressure 30.00 in
Visibility 5.0 miles
Clouds Clear
Dew Point 60 °F
Humidity 96%
Rainfall 0.00 in
Snow Depth Not available.
UV 1 out of 12
Pollen 4.30 out of 12
Air Quality Not available.
Flu Activity Not available.
METAR KRFD 041154Z 00000KT 5SM BR CLR 14/13 A3000 RMK AO2 SLP157 T01440133 10161 20139 53007

More Conditions Fewer Conditions

Pressure 30.00 in
Visibility 5.0 miles
Clouds Clear
Dew Point 60 °F
Humidity 96%
Rainfall 0.00 in
Snow Depth Not available.
UV 1 out of 12
Pollen 4.30 out of 12
Air Quality Not available.
Flu Activity Not available.
METAR KRFD 041154Z 00000KT 5SM BR CLR 14/13 A3000 RMK AO2 SLP157 T01440133 10161 20139 53007

More Conditions Fewer Conditions

10-Day Weather Forecast

×

Almanac

Astronomy

Jul. 04, 2015 Rise Set
Actual Time
Civil Twilight
Nautical Twilight
Astronomical Twilight
Moon
Length of Visible Light
Length of Day
Tomorrow will be .
, % of the Moon is Illuminated

Today's Extremes

State Highs State Lows

Community

WunderPhotos

Upload Photos

1,834,946 photos uploaded!

WunderBlogs® & News

Nearby

Air Quality

  Air Quality AQ Index Pollutant
Not available.

Snow Depth

Station Depth Elevation

Earthquake Activity

City Distance Mag. Time & Date
Minimum magnitude displayed is 2.5.

Coastal Water Temperatures

Place Temperature

Stations

Nearby Weather Stations

Station Location Temp. Windchill Dew Point Humidity Wind Precip. Elev Updated Type